Time;durP1;ratioP1;P1;durP2;ratioP2;P2;SDS_P1;SDS_P2;PMS_P1;PMS_P2;Temp;Humidity;BMP_temperature;BMP_pressure;BME280_temperature;BME280_humidity;BME280_pressure;Samples;Min_cycle;Max_cycle;Signal;HPM_P1;HPM_P2
2024/04/07 00:00:26;;;;;;;7.03;2.47;;;17.60;1.00;;;;;;5087210;28;20306;-63
2024/04/07 00:02:53;;;;;;;4.13;2.37;;;17.60;1.00;;;;;;5086586;28;20194;-62
2024/04/07 00:05:22;;;;;;;6.00;2.50;;;17.50;1.00;;;;;;5084209;28;20215;-63
2024/04/07 00:07:52;;;;;;;8.33;2.73;;;17.50;1.00;;;;;;5091034;28;20222;-63
2024/04/07 00:10:19;;;;;;;3.97;2.70;;;17.50;1.00;;;;;;5087722;28;20275;-63
2024/04/07 00:12:47;;;;;;;6.93;2.90;;;17.50;1.00;;;;;;5083174;28;20222;-63
2024/04/07 00:15:17;;;;;;;7.33;2.67;;;17.50;1.00;;;;;;5084673;28;20295;-63
2024/04/07 00:17:46;;;;;;;5.30;2.57;;;17.40;1.00;;;;;;5090194;28;20320;-63
2024/04/07 00:20:13;;;;;;;8.10;2.80;;;17.50;1.00;;;;;;5088600;28;20210;-63
2024/04/07 00:22:40;;;;;;;8.03;3.20;;;17.40;1.00;;;;;;5087630;28;20647;-63
2024/04/07 00:25:08;;;;;;;8.57;2.80;;;17.40;1.00;;;;;;5087095;28;20712;-63
2024/04/07 00:27:34;;;;;;;11.33;2.90;;;17.40;1.00;;;;;;5092752;28;20229;-63
2024/04/07 00:30:03;;;;;;;7.50;2.73;;;17.30;1.00;;;;;;5089292;28;20650;-62
2024/04/07 00:32:31;;;;;;;5.37;2.63;;;17.30;1.00;;;;;;5082767;28;20200;-63
2024/04/07 00:34:58;;;;;;;8.87;2.93;;;17.30;1.00;;;;;;5089718;28;20219;-64
2024/04/07 00:37:28;;;;;;;13.53;3.13;;;17.20;1.00;;;;;;5085782;28;20608;-62
2024/04/07 00:39:56;;;;;;;4.27;2.27;;;17.20;1.00;;;;;;5083687;28;20638;-63
2024/04/07 00:42:23;;;;;;;6.53;2.67;;;17.20;1.00;;;;;;5081102;28;20655;-63
2024/04/07 00:44:53;;;;;;;4.57;2.30;;;17.30;1.00;;;;;;5087269;28;20220;-63
2024/04/07 00:47:20;;;;;;;5.90;2.47;;;17.30;1.00;;;;;;5087358;28;20230;-63
2024/04/07 00:49:49;;;;;;;5.37;2.57;;;17.30;1.00;;;;;;5080260;28;20756;-63
2024/04/07 00:52:16;;;;;;;8.73;2.40;;;17.30;1.00;;;;;;5086553;28;20283;-62
2024/04/07 00:54:44;;;;;;;5.50;2.53;;;17.30;1.00;;;;;;5089648;28;20224;-63
2024/04/07 00:57:10;;;;;;;4.67;2.20;;;17.30;1.00;;;;;;5087115;28;20641;-63
2024/04/07 00:59:38;;;;;;;2.33;1.80;;;17.20;1.00;;;;;;5085926;28;20205;-62
2024/04/07 01:02:05;;;;;;;3.87;1.80;;;17.20;1.00;;;;;;5086050;28;20274;-62
2024/04/07 01:04:32;;;;;;;3.90;1.80;;;17.20;1.00;;;;;;5088052;28;20217;-62
2024/04/07 01:07:00;;;;;;;7.00;1.80;;;17.20;1.00;;;;;;5091106;28;20233;-62
2024/04/07 01:09:28;;;;;;;2.67;1.50;;;17.20;1.00;;;;;;5090702;28;20330;-62
2024/04/07 01:11:54;;;;;;;2.50;1.73;;;17.10;1.00;;;;;;5090785;28;20264;-63
2024/04/07 01:14:22;;;;;;;3.70;1.43;;;16.90;1.00;;;;;;5088997;28;20707;-63
2024/04/07 01:16:48;;;;;;;1.30;1.20;;;16.80;1.00;;;;;;5087108;28;20220;-62
2024/04/07 01:19:16;;;;;;;2.60;1.67;;;16.70;1.00;;;;;;5091019;28;20219;-63
2024/04/07 01:21:42;;;;;;;2.00;1.40;;;16.70;1.00;;;;;;5089359;28;20303;-63
2024/04/07 01:24:11;;;;;;;3.93;1.37;;;16.60;1.00;;;;;;5091040;28;20344;-62
2024/04/07 01:26:37;;;;;;;2.00;1.30;;;16.50;1.00;;;;;;5092046;28;20229;-62
2024/04/07 01:29:05;;;;;;;3.40;1.20;;;16.40;1.00;;;;;;5094941;28;20193;-63
2024/04/07 01:31:31;;;;;;;2.47;1.37;;;16.30;1.00;;;;;;5096917;28;20316;-63
2024/04/07 01:33:59;;;;;;;2.10;1.40;;;16.20;1.00;;;;;;5091338;28;20690;-63
2024/04/07 01:36:25;;;;;;;2.30;1.50;;;16.10;1.00;;;;;;5090663;28;20233;-63
2024/04/07 01:38:53;;;;;;;4.37;1.43;;;16.00;1.00;;;;;;5086757;28;20278;-62
2024/04/07 01:41:21;;;;;;;2.90;1.60;;;15.90;34.10;;;;;;5095120;28;20244;-62
2024/04/07 01:43:48;;;;;;;4.07;1.40;;;15.80;41.20;;;;;;5087370;28;20227;-63
2024/04/07 01:46:14;;;;;;;3.97;1.13;;;15.70;62.10;;;;;;5088947;28;20707;-63
2024/04/07 01:48:42;;;;;;;1.87;1.30;;;15.70;56.40;;;;;;5085761;28;20270;-63
2024/04/07 01:51:08;;;;;;;2.40;1.33;;;15.60;62.50;;;;;;5091136;28;20225;-63
2024/04/07 01:53:36;;;;;;;3.87;1.60;;;15.50;44.90;;;;;;5095012;28;20217;-63
2024/04/07 01:56:02;;;;;;;1.43;1.20;;;15.50;41.80;;;;;;5094135;28;20209;-63
2024/04/07 02:02:31;;;;;;;1.10;1.10;;;15.30;63.80;;;;;;5092113;28;20351;-63
2024/04/07 02:04:58;;;;;;;2.10;1.20;;;15.20;44.30;;;;;;5091911;28;20303;-63
2024/04/07 02:07:26;;;;;;;1.87;1.10;;;15.20;59.40;;;;;;5071575;28;20259;-63
2024/04/07 02:09:52;;;;;;;2.10;1.27;;;15.20;57.30;;;;;;5093912;28;20271;-63
2024/04/07 02:12:20;;;;;;;1.80;1.30;;;15.20;37.00;;;;;;5087977;28;20308;-63
2024/04/07 02:14:46;;;;;;;2.63;1.00;;;15.30;28.80;;;;;;5093366;28;20280;-63
2024/04/07 02:17:13;;;;;;;1.37;1.03;;;15.30;26.20;;;;;;5088581;28;20199;-63
2024/04/07 02:19:41;;;;;;;1.37;1.10;;;15.20;20.50;;;;;;5093684;28;20303;-63
2024/04/07 02:22:09;;;;;;;1.10;1.00;;;15.20;36.60;;;;;;5093844;28;20219;-62
2024/04/07 02:24:35;;;;;;;1.03;1.00;;;15.20;26.30;;;;;;5091918;28;20315;-62
2024/04/07 02:27:03;;;;;;;1.40;1.10;;;15.20;37.10;;;;;;5089510;28;20304;-63
2024/04/07 02:29:30;;;;;;;1.37;1.30;;;15.20;34.30;;;;;;5093255;28;20195;-63
2024/04/07 02:31:57;;;;;;;1.80;1.30;;;15.20;32.00;;;;;;5092263;28;20221;-62
2024/04/07 02:34:24;;;;;;;1.93;1.00;;;15.20;22.60;;;;;;5094707;28;20211;-63
2024/04/07 02:36:52;;;;;;;1.23;1.10;;;15.20;39.20;;;;;;5093482;28;20305;-63
2024/04/07 02:39:19;;;;;;;1.50;1.07;;;15.10;33.70;;;;;;5085357;28;20243;-63
2024/04/07 02:41:46;;;;;;;3.27;1.17;;;15.10;41.30;;;;;;5088973;28;20194;-63
2024/04/07 02:44:13;;;;;;;1.00;1.00;;;15.10;43.40;;;;;;5081728;28;20327;-63
2024/04/07 02:49:25;;;;;;;1.10;1.00;;;15.10;61.50;;;;;;5103570;28;20281;-63
2024/04/07 02:51:53;;;;;;;1.43;1.30;;;15.00;51.10;;;;;;5087670;28;20215;-63
2024/04/07 02:54:21;;;;;;;1.17;1.17;;;14.90;63.00;;;;;;5087628;28;20219;-63
2024/04/07 02:56:47;;;;;;;1.50;1.10;;;14.90;59.90;;;;;;5092857;28;20203;-62
2024/04/07 02:59:15;;;;;;;1.43;1.00;;;14.90;77.00;;;;;;5093252;28;20317;-63
2024/04/07 03:01:41;;;;;;;1.13;1.10;;;14.80;69.40;;;;;;5081608;28;20220;-63
2024/04/07 03:04:10;;;;;;;1.43;1.20;;;14.80;66.40;;;;;;5089943;28;20228;-63
2024/04/07 03:06:36;;;;;;;2.17;1.20;;;14.90;64.10;;;;;;5092638;28;20273;-63
2024/04/07 03:09:06;;;;;;;1.93;1.20;;;14.90;66.40;;;;;;5088577;28;20280;-63
2024/04/07 03:11:33;;;;;;;1.77;0.90;;;14.80;81.30;;;;;;5087857;28;20223;-64
2024/04/07 03:14:01;;;;;;;1.20;1.13;;;14.80;87.40;;;;;;5090615;28;20811;-63
2024/04/07 03:16:27;;;;;;;2.03;1.17;;;14.70;96.20;;;;;;5091448;28;20227;-63
2024/04/07 03:18:55;;;;;;;1.90;1.30;;;14.60;99.90;;;;;;5092934;28;20215;-63
2024/04/07 03:21:21;;;;;;;2.37;1.10;;;14.40;99.90;;;;;;5084948;28;20216;-63
2024/04/07 03:23:49;;;;;;;1.60;1.33;;;14.20;99.90;;;;;;5087457;28;20195;-63
2024/04/07 03:26:17;;;;;;;1.37;1.20;;;14.10;99.90;;;;;;5089358;28;20219;-63
2024/04/07 03:28:47;;;;;;;1.47;1.23;;;14.00;99.90;;;;;;5085144;28;20724;-62
2024/04/07 03:31:14;;;;;;;1.97;1.33;;;14.00;99.90;;;;;;5085715;28;20211;-64
2024/04/07 03:33:41;;;;;;;1.03;1.00;;;14.10;99.90;;;;;;5088569;28;20705;-63
2024/04/07 03:36:08;;;;;;;1.30;1.30;;;14.10;99.90;;;;;;5085785;28;20744;-63
2024/04/07 03:38:35;;;;;;;1.47;1.20;;;14.10;99.90;;;;;;5091971;28;20647;-63
2024/04/07 03:41:04;;;;;;;1.93;1.50;;;14.20;99.90;;;;;;5090069;28;20580;-63
2024/04/07 03:43:33;;;;;;;1.60;1.20;;;14.30;99.90;;;;;;5084579;28;20232;-64
2024/04/07 03:46:01;;;;;;;1.50;1.40;;;14.30;99.90;;;;;;5082539;28;20215;-63
2024/04/07 03:48:30;;;;;;;2.33;1.40;;;14.30;99.90;;;;;;5089911;28;20619;-63
2024/04/07 03:50:58;;;;;;;1.67;1.47;;;14.30;99.90;;;;;;5085084;28;20318;-63
2024/04/07 03:53:27;;;;;;;2.70;1.27;;;14.30;99.90;;;;;;5086336;28;20286;-62
2024/04/07 03:55:55;;;;;;;1.00;1.00;;;14.40;99.90;;;;;;5082419;28;20306;-62
2024/04/07 03:58:22;;;;;;;1.27;1.20;;;14.40;99.90;;;;;;5088520;28;20215;-62
2024/04/07 04:00:51;;;;;;;1.40;1.30;;;14.40;99.90;;;;;;5083648;28;20224;-63
2024/04/07 04:03:17;;;;;;;1.60;1.40;;;14.50;99.90;;;;;;5088045;28;20245;-63
2024/04/07 04:05:44;;;;;;;3.43;1.40;;;14.40;99.90;;;;;;5088031;28;20208;-63
2024/04/07 04:08:12;;;;;;;2.37;1.13;;;14.40;99.90;;;;;;5090235;28;20195;-62
2024/04/07 04:10:40;;;;;;;2.37;1.50;;;14.40;99.90;;;;;;5088486;28;20737;-63
2024/04/07 04:13:06;;;;;;;3.87;1.50;;;14.40;99.90;;;;;;5084616;28;20223;-63
2024/04/07 04:15:36;;;;;;;1.40;1.27;;;14.40;99.90;;;;;;5089625;28;20219;-63
2024/04/07 04:18:08;;;;;;;2.50;1.40;;;14.40;99.90;;;;;;5090693;28;20268;-62
2024/04/07 04:20:55;;;;;;;2.50;1.23;;;14.50;99.90;;;;;;5087413;28;20227;-63
2024/04/07 04:23:21;;;;;;;4.43;1.50;;;14.50;99.90;;;;;;5079942;28;20290;-63
2024/04/07 04:25:52;;;;;;;2.87;1.40;;;14.50;99.90;;;;;;5097524;28;20264;-63
2024/04/07 04:28:19;;;;;;;2.23;1.60;;;14.50;99.90;;;;;;5085508;28;20239;-63
2024/04/07 04:30:53;;;;;;;1.73;1.60;;;14.50;99.90;;;;;;5089381;28;20315;-63
2024/04/07 04:33:22;;;;;;;3.33;1.50;;;14.40;99.90;;;;;;5084023;28;20226;-63
2024/04/07 04:35:50;;;;;;;2.50;1.50;;;14.50;99.90;;;;;;5090481;28;20223;-63
2024/04/07 04:38:16;;;;;;;1.43;1.33;;;14.50;99.90;;;;;;5090088;28;20282;-63
2024/04/07 04:40:52;;;;;;;2.00;1.63;;;14.50;99.90;;;;;;5083991;28;20249;-63
2024/04/07 04:43:19;;;;;;;2.37;1.60;;;14.50;99.90;;;;;;5086400;28;20210;-63
2024/04/07 04:45:47;;;;;;;3.07;1.50;;;14.40;99.90;;;;;;5085249;28;20264;-63
2024/04/07 04:48:13;;;;;;;2.07;1.43;;;14.40;99.90;;;;;;5090342;28;20302;-64
2024/04/07 04:50:51;;;;;;;2.23;1.47;;;14.40;99.90;;;;;;5078687;28;20719;-63
2024/04/07 04:53:18;;;;;;;2.67;1.40;;;14.40;99.90;;;;;;5087967;28;20195;-63
2024/04/07 04:55:45;;;;;;;2.60;1.33;;;14.50;99.90;;;;;;5088098;28;20218;-62
2024/04/07 04:58:12;;;;;;;1.87;1.40;;;14.50;99.90;;;;;;5083910;28;20231;-63
2024/04/07 05:00:40;;;;;;;4.40;1.60;;;14.40;99.90;;;;;;5088575;28;20313;-63
2024/04/07 05:03:06;;;;;;;2.00;1.50;;;14.40;99.90;;;;;;5082698;28;20220;-64
2024/04/07 05:05:33;;;;;;;4.40;1.60;;;14.30;99.90;;;;;;5093041;28;20211;-62
2024/04/07 05:08:01;;;;;;;2.07;1.87;;;14.30;99.90;;;;;;5091106;28;20407;-63
2024/04/07 05:10:29;;;;;;;2.17;1.90;;;14.30;99.90;;;;;;5094536;28;20226;-63
2024/04/07 05:12:55;;;;;;;5.40;1.60;;;14.30;99.90;;;;;;5087521;28;20600;-63
2024/04/07 05:15:23;;;;;;;2.30;1.70;;;14.30;99.90;;;;;;5088357;28;20212;-63
2024/04/07 05:17:49;;;;;;;2.67;1.90;;;14.20;99.90;;;;;;5092248;28;20286;-63
2024/04/07 05:20:17;;;;;;;2.27;1.70;;;14.20;99.90;;;;;;5093205;28;20196;-63
2024/04/07 05:22:43;;;;;;;3.37;2.00;;;14.30;99.90;;;;;;5095205;28;20713;-63
2024/04/07 05:25:12;;;;;;;5.07;1.63;;;14.30;99.90;;;;;;5091143;28;20215;-63
2024/04/07 05:27:38;;;;;;;2.00;1.80;;;14.20;99.90;;;;;;5089375;28;20223;-63
2024/04/07 05:30:07;;;;;;;6.57;2.00;;;14.30;99.90;;;;;;5081148;28;20645;-63
2024/04/07 05:32:34;;;;;;;3.30;1.70;;;14.30;99.90;;;;;;5091682;28;20195;-63
2024/04/07 05:35:04;;;;;;;7.17;2.10;;;14.20;99.90;;;;;;5092871;28;20639;-63
2024/04/07 05:37:31;;;;;;;3.80;1.77;;;14.20;99.90;;;;;;5087447;28;20224;-63
2024/04/07 05:39:58;;;;;;;1.97;1.67;;;14.20;99.90;;;;;;5094842;28;20591;-63
2024/04/07 05:42:28;;;;;;;2.87;2.23;;;14.20;99.90;;;;;;5094093;28;20219;-63
2024/04/07 05:44:58;;;;;;;3.33;1.90;;;14.10;99.90;;;;;;5092131;28;20226;-63
2024/04/07 05:47:25;;;;;;;6.43;2.10;;;14.10;99.90;;;;;;5090719;28;20705;-63
2024/04/07 05:49:52;;;;;;;5.80;1.80;;;14.10;99.90;;;;;;5077785;28;20219;-63
2024/04/07 05:52:19;;;;;;;3.63;1.87;;;14.10;99.90;;;;;;5078220;28;20263;-63
2024/04/07 05:54:46;;;;;;;3.43;1.87;;;14.10;99.90;;;;;;5086874;28;20251;-63
2024/04/07 05:57:12;;;;;;;4.30;1.93;;;14.10;99.90;;;;;;5092790;28;20207;-63
2024/04/07 05:59:42;;;;;;;3.60;1.90;;;14.20;99.90;;;;;;5092527;28;20282;-63
2024/04/07 06:02:08;;;;;;;7.60;1.83;;;14.10;99.90;;;;;;5094640;28;20316;-63
2024/04/07 06:04:36;;;;;;;5.67;1.87;;;14.10;99.90;;;;;;5093536;28;20263;-62
2024/04/07 06:07:02;;;;;;;2.97;1.93;;;14.20;99.90;;;;;;5081193;28;20219;-63
2024/04/07 06:09:30;;;;;;;1.97;1.70;;;14.30;99.90;;;;;;5073129;28;20220;-63
2024/04/07 06:11:56;;;;;;;3.20;1.90;;;14.30;99.90;;;;;;5073323;28;20689;-63
2024/04/07 06:14:23;;;;;;;2.70;1.57;;;14.40;99.90;;;;;;5072117;28;20683;-63
2024/04/07 06:16:51;;;;;;;6.77;1.80;;;14.40;99.90;;;;;;5073391;28;20642;-63
2024/04/07 06:19:19;;;;;;;3.37;1.77;;;14.50;99.90;;;;;;5070304;28;20303;-63
2024/04/07 06:21:45;;;;;;;3.93;2.00;;;14.50;99.90;;;;;;5064356;28;20314;-63
2024/04/07 06:24:13;;;;;;;3.53;1.70;;;14.50;99.90;;;;;;5070660;28;20289;-63
2024/04/07 06:26:39;;;;;;;3.40;1.77;;;14.60;99.90;;;;;;5073469;28;20208;-63
2024/04/07 06:29:07;;;;;;;3.77;1.73;;;14.80;99.90;;;;;;5074415;28;20225;-63
2024/04/07 06:31:33;;;;;;;5.03;1.60;;;15.00;65.40;;;;;;5073622;28;20369;-63
2024/04/07 06:34:03;;;;;;;1.63;1.53;;;15.30;24.10;;;;;;5073314;28;20220;-62
2024/04/07 06:36:30;;;;;;;1.80;1.60;;;15.60;69.70;;;;;;5073549;28;20242;-62
2024/04/07 06:38:57;;;;;;;1.63;1.40;;;15.90;55.30;;;;;;5072319;28;20235;-63
2024/04/07 06:41:23;;;;;;;2.67;1.77;;;16.10;1.00;;;;;;5064943;28;20278;-63
2024/04/07 06:43:51;;;;;;;2.67;1.70;;;16.30;1.00;;;;;;5071312;28;20697;-63
2024/04/07 06:46:17;;;;;;;4.50;1.53;;;16.40;1.00;;;;;;5073129;28;20297;-63
2024/04/07 06:48:45;;;;;;;3.53;1.63;;;16.70;1.00;;;;;;5073476;28;20335;-64
2024/04/07 06:51:12;;;;;;;2.23;1.37;;;17.00;1.00;;;;;;5073243;28;20790;-63
2024/04/07 06:53:40;;;;;;;2.63;1.73;;;17.10;1.00;;;;;;5068473;28;20287;-63
2024/04/07 06:56:07;;;;;;;1.97;1.80;;;17.20;1.00;;;;;;5063187;28;20327;-63
2024/04/07 06:58:34;;;;;;;2.10;1.67;;;17.20;1.00;;;;;;5079104;28;20224;-63
2024/04/07 07:01:01;;;;;;;6.33;1.53;;;17.30;1.00;;;;;;5070210;28;20217;-63
2024/04/07 07:03:28;;;;;;;2.97;1.50;;;17.30;1.00;;;;;;5091078;28;20621;-63
2024/04/07 07:05:55;;;;;;;2.70;1.73;;;17.30;1.00;;;;;;5072668;28;20259;-63
2024/04/07 07:08:24;;;;;;;3.70;1.40;;;17.50;1.00;;;;;;5064419;28;20187;-63
2024/04/07 07:10:59;;;;;;;6.00;1.67;;;17.50;1.00;;;;;;5075813;28;20243;-63
2024/04/07 07:13:27;;;;;;;2.67;1.60;;;17.60;1.00;;;;;;5075085;28;20241;-63
2024/04/07 07:15:54;;;;;;;2.77;1.33;;;17.60;1.00;;;;;;5075842;28;20806;-63
2024/04/07 07:18:21;;;;;;;2.30;1.43;;;17.60;1.00;;;;;;5065746;28;20314;-63
2024/04/07 07:20:48;;;;;;;1.87;1.77;;;17.80;1.00;;;;;;5075746;28;20192;-63
2024/04/07 07:23:16;;;;;;;1.40;1.30;;;17.80;1.00;;;;;;5073909;28;20632;-63
2024/04/07 07:25:44;;;;;;;3.87;1.63;;;17.80;1.00;;;;;;5058491;28;20272;-64
2024/04/07 07:28:12;;;;;;;1.67;1.30;;;17.90;1.00;;;;;;5075958;28;20276;-63
2024/04/07 07:30:40;;;;;;;3.50;1.57;;;18.00;1.00;;;;;;5075803;28;20233;-62
2024/04/07 07:33:12;;;;;;;1.97;1.53;;;18.10;1.00;;;;;;5075603;28;20245;-64
2024/04/07 07:39:05;;;;;;;3.67;1.93;;;18.10;1.00;;;;;;5072440;28;20322;-63
2024/04/07 07:41:33;;;;;;;8.30;1.83;;;17.70;1.00;;;;;;5078241;28;20204;-63
2024/04/07 07:44:00;;;;;;;3.93;1.50;;;17.60;1.00;;;;;;5068413;28;20746;-63
2024/04/07 07:46:26;;;;;;;3.57;1.50;;;17.40;1.00;;;;;;5075464;28;20222;-63
2024/04/07 07:48:54;;;;;;;3.57;1.80;;;17.10;1.00;;;;;;5065469;28;20211;-62
2024/04/07 07:51:39;;;;;;;3.07;1.50;;;17.00;1.00;;;;;;5074195;28;20221;-63
2024/04/07 07:54:09;;;;;;;3.93;1.77;;;16.90;1.00;;;;;;5076480;28;20225;-63
2024/04/07 07:56:37;;;;;;;2.17;1.70;;;16.90;1.00;;;;;;5069372;28;20287;-63
2024/04/07 07:59:05;;;;;;;2.67;1.63;;;16.90;1.00;;;;;;5093140;28;20601;-63
2024/04/07 08:01:35;;;;;;;1.40;1.30;;;16.70;1.00;;;;;;5095528;28;20221;-63
2024/04/07 08:04:03;;;;;;;4.00;1.50;;;16.80;1.00;;;;;;5078458;28;20245;-63
2024/04/07 08:06:30;;;;;;;2.43;1.63;;;16.80;1.00;;;;;;5095173;28;20225;-63
2024/04/07 08:08:57;;;;;;;3.40;1.60;;;17.00;1.00;;;;;;5095700;28;20752;-63
2024/04/07 08:11:23;;;;;;;2.57;1.70;;;17.20;1.00;;;;;;5096990;28;20267;-63
2024/04/07 08:14:13;;;;;;;4.07;1.80;;;17.50;1.00;;;;;;5094246;28;20250;-63
2024/04/07 08:17:18;;;;;;;3.83;1.70;;;17.70;1.00;;;;;;5091740;28;20619;-62
2024/04/07 08:20:23;;;;;;;6.30;1.80;;;18.00;1.00;;;;;;5089576;28;20306;-63
2024/04/07 08:22:50;;;;;;;2.57;1.63;;;18.00;1.00;;;;;;5075385;28;20711;-63
2024/04/07 08:25:18;;;;;;;3.10;1.50;;;17.90;1.00;;;;;;5087511;28;20242;-64
2024/04/07 08:27:45;;;;;;;4.30;1.70;;;17.80;1.00;;;;;;5094656;28;20332;-63
2024/04/07 08:33:59;;;;;;;3.73;1.83;;;18.00;1.00;;;;;;5094730;28;20212;-63
2024/04/07 08:36:25;;;;;;;2.07;1.40;;;18.70;1.00;;;;;;5090594;28;20249;-63
2024/04/07 08:39:11;;;;;;;3.27;1.50;;;19.30;1.00;;;;;;5098865;28;20189;-63
2024/04/07 08:41:38;;;;;;;3.70;1.37;;;19.80;99.90;;;;;;5089571;28;20179;-63
2024/04/07 08:44:07;;;;;;;5.07;1.40;;;20.00;99.90;;;;;;5088979;28;20629;-63
2024/04/07 08:46:36;;;;;;;3.80;1.20;;;20.10;99.90;;;;;;5080718;28;20211;-63
2024/04/07 08:49:07;;;;;;;2.97;1.40;;;20.60;1.00;;;;;;5074506;28;20270;-64
2024/04/07 08:51:53;;;;;;;4.80;1.60;;;20.70;1.00;;;;;;5082041;28;20232;-63
2024/04/07 08:54:22;;;;;;;2.77;1.47;;;20.60;1.00;;;;;;5064699;28;20216;-63
2024/04/07 08:56:51;;;;;;;4.87;1.63;;;20.50;1.00;;;;;;5072779;28;20278;-63
2024/04/07 08:59:21;;;;;;;2.73;1.50;;;20.80;30.10;;;;;;5055996;28;20238;-63
2024/04/07 09:02:09;;;;;;;3.63;1.33;;;21.30;1.00;;;;;;5074815;28;20298;-63
2024/04/07 09:05:15;;;;;;;1.50;1.27;;;21.40;99.90;;;;;;5089681;28;20226;-64
2024/04/07 09:07:43;;;;;;;4.23;1.50;;;21.60;1.00;;;;;;5072269;28;20630;-64
2024/04/07 09:10:11;;;;;;;1.83;1.47;;;22.00;99.90;;;;;;5089857;28;20312;-64
2024/04/07 09:12:37;;;;;;;6.97;1.13;;;22.40;1.00;;;;;;5086394;28;20292;-64
2024/04/07 09:15:05;;;;;;;2.47;1.50;;;22.10;1.00;;;;;;5089629;28;20272;-63
2024/04/07 09:17:32;;;;;;;3.60;1.20;;;21.70;1.00;;;;;;5084875;28;20283;-63
2024/04/07 09:19:59;;;;;;;1.20;1.00;;;21.10;1.00;;;;;;5091698;28;20559;-63
2024/04/07 09:22:25;;;;;;;2.87;1.47;;;20.80;99.90;;;;;;5075205;28;20226;-63
2024/04/07 09:25:02;;;;;;;2.73;1.30;;;20.90;1.00;;;;;;5086903;28;20223;-64
2024/04/07 09:27:28;;;;;;;3.13;1.30;;;21.30;1.00;;;;;;5083416;28;20219;-63
2024/04/07 09:29:57;;;;;;;3.00;1.17;;;21.60;1.00;;;;;;5089762;28;20288;-63
2024/04/07 09:32:24;;;;;;;1.90;1.37;;;21.80;99.90;;;;;;5085431;28;20202;-62
2024/04/07 09:34:54;;;;;;;2.13;1.23;;;21.60;99.90;;;;;;5088468;28;20220;-63
2024/04/07 09:37:21;;;;;;;3.43;1.10;;;21.80;1.00;;;;;;5095053;28;20215;-63
2024/04/07 09:39:48;;;;;;;2.53;1.23;;;21.30;1.00;;;;;;5065390;28;20750;-63
2024/04/07 09:42:19;;;;;;;3.20;1.13;;;21.30;99.90;;;;;;5090906;28;20322;-63
2024/04/07 09:44:49;;;;;;;1.77;1.20;;;21.70;1.00;;;;;;5086915;28;20285;-63
2024/04/07 09:47:24;;;;;;;1.33;1.20;;;22.00;99.90;;;;;;5095284;28;20292;-63
2024/04/07 09:49:59;;;;;;;1.47;1.13;;;21.90;79.70;;;;;;5092284;28;20227;-63
2024/04/07 09:52:32;;;;;;;2.57;1.53;;;22.00;99.90;;;;;;5094111;28;20282;-64
2024/04/07 09:55:06;;;;;;;3.73;1.10;;;21.70;1.00;;;;;;5093601;28;20300;-63
2024/04/07 09:57:35;;;;;;;2.60;1.30;;;22.10;1.00;;;;;;5096657;27;20250;-64
2024/04/07 10:00:04;;;;;;;2.10;1.30;;;22.60;1.00;;;;;;5089803;28;20249;-64
2024/04/07 10:02:32;;;;;;;3.40;1.30;;;22.40;1.00;;;;;;5094544;28;20182;-64
2024/04/07 10:04:59;;;;;;;4.63;1.43;;;22.80;1.00;;;;;;5094533;27;20206;-63
2024/04/07 10:07:27;;;;;;;2.67;1.27;;;23.00;1.00;;;;;;5091461;28;20309;-64
2024/04/07 10:09:57;;;;;;;2.93;1.20;;;22.80;99.90;;;;;;5077477;28;20237;-64
2024/04/07 10:12:28;;;;;;;3.57;1.30;;;23.20;97.20;;;;;;5087195;28;20227;-64
2024/04/07 10:14:56;;;;;;;1.13;1.03;;;23.80;1.00;;;;;;5086509;28;20214;-64
2024/04/07 10:17:25;;;;;;;1.40;1.30;;;23.80;99.90;;;;;;5107945;27;20195;-64
2024/04/07 10:19:54;;;;;;;1.60;1.13;;;23.90;99.90;;;;;;5091940;28;20210;-63
2024/04/07 10:22:23;;;;;;;1.77;0.90;;;24.60;99.90;;;;;;5089848;28;20668;-64
2024/04/07 10:24:51;;;;;;;1.30;1.10;;;24.70;1.00;;;;;;5089563;28;20678;-64
2024/04/07 10:27:23;;;;;;;1.50;1.17;;;24.70;1.00;;;;;;5095555;27;20564;-63
2024/04/07 10:29:54;;;;;;;1.73;1.23;;;24.60;1.00;;;;;;5075060;28;20248;-64
2024/04/07 10:32:29;;;;;;;1.85;1.10;;;24.60;1.00;;;;;;5091508;27;20196;-64
2024/04/07 10:35:00;;;;;;;2.22;1.08;;;24.90;1.00;;;;;;5096176;28;20302;-64
2024/04/07 10:37:27;;;;;;;1.63;1.00;;;24.70;1.00;;;;;;5091915;28;20565;-63
2024/04/07 10:39:56;;;;;;;1.23;0.90;;;24.70;99.90;;;;;;5094727;28;20311;-64
2024/04/07 10:42:29;;;;;;;2.70;1.10;;;25.00;99.90;;;;;;5088459;28;20223;-64
2024/04/07 10:44:56;;;;;;;2.15;0.90;;;25.50;1.00;;;;;;5091826;28;20207;-64
2024/04/07 10:47:24;;;;;;;1.55;1.00;;;25.40;99.90;;;;;;5093622;28;20212;-64
2024/04/07 10:49:52;;;;;;;2.50;0.98;;;25.40;99.90;;;;;;5094103;28;20223;-63
2024/04/07 10:52:19;;;;;;;2.40;1.20;;;25.30;99.90;;;;;;5094555;28;20228;-64
2024/04/07 10:54:46;;;;;;;1.67;1.20;;;25.50;99.90;;;;;;5089244;28;20681;-64
2024/04/07 10:57:14;;;;;;;2.00;1.10;;;25.00;99.90;;;;;;5085054;28;20310;-63
2024/04/07 10:59:41;;;;;;;1.52;1.08;;;25.20;99.90;;;;;;5088394;28;20298;-63
2024/04/07 11:02:10;;;;;;;1.27;1.20;;;25.20;99.90;;;;;;5088187;28;20203;-63
2024/04/07 11:04:36;;;;;;;1.58;1.33;;;25.10;99.90;;;;;;5089797;28;20234;-63
2024/04/07 11:07:06;;;;;;;2.25;1.10;;;25.90;99.90;;;;;;5088850;28;20311;-64
2024/04/07 11:09:33;;;;;;;1.42;0.98;;;26.30;1.00;;;;;;5088625;28;20257;-63
2024/04/07 11:12:02;;;;;;;1.13;1.02;;;26.10;1.00;;;;;;5087331;28;20216;-63
2024/04/07 11:14:30;;;;;;;1.90;1.23;;;26.00;1.00;;;;;;5091813;27;20243;-63
2024/04/07 11:17:06;;;;;;;1.00;1.00;;;25.90;1.00;;;;;;5092823;28;20721;-63
2024/04/07 11:19:34;;;;;;;2.42;1.42;;;25.80;1.00;;;;;;5092273;27;20226;-64
2024/04/07 11:22:03;;;;;;;9.30;1.50;;;26.20;1.00;;;;;;5084897;28;20216;-63
2024/04/07 11:24:32;;;;;;;1.77;1.03;;;25.90;99.90;;;;;;5089916;28;20222;-63
2024/04/07 11:26:59;;;;;;;1.43;1.10;;;25.50;1.00;;;;;;5084212;28;20254;-63
2024/04/07 11:29:28;;;;;;;1.70;1.10;;;25.70;1.00;;;;;;5088857;27;20191;-63
2024/04/07 11:31:57;;;;;;;2.93;0.90;;;25.80;99.90;;;;;;5086990;28;20370;-64
2024/04/07 11:34:28;;;;;;;1.13;1.00;;;26.00;99.90;;;;;;5085908;28;20218;-63
2024/04/07 11:36:57;;;;;;;1.90;1.20;;;25.70;99.90;;;;;;5089065;28;20701;-63
2024/04/07 11:39:25;;;;;;;2.73;1.20;;;25.60;99.90;;;;;;5089829;28;20225;-63
2024/04/07 11:41:54;;;;;;;1.10;1.10;;;25.40;1.00;;;;;;5089213;27;20203;-63
2024/04/07 11:44:20;;;;;;;1.67;1.00;;;25.80;99.90;;;;;;5092334;28;20533;-63
2024/04/07 11:46:48;;;;;;;1.27;1.10;;;26.20;99.90;;;;;;5086524;28;20215;-64
2024/04/07 11:49:14;;;;;;;4.57;1.00;;;25.80;99.90;;;;;;5087510;28;20222;-62
2024/04/07 11:51:42;;;;;;;1.60;0.90;;;25.90;99.90;;;;;;5104334;28;20221;-63
2024/04/07 11:54:08;;;;;;;1.47;1.17;;;25.90;99.90;;;;;;5091617;28;20272;-63
2024/04/07 11:56:38;;;;;;;1.40;0.90;;;25.60;99.90;;;;;;5095803;27;20236;-62
2024/04/07 11:59:05;;;;;;;1.10;1.00;;;25.60;99.90;;;;;;5094179;28;20233;-62
2024/04/07 12:01:33;;;;;;;2.67;1.10;;;25.40;99.90;;;;;;5092873;28;20262;-62
2024/04/07 12:03:59;;;;;;;1.00;1.00;;;25.40;99.90;;;;;;5094032;28;20210;-62
2024/04/07 12:06:27;;;;;;;1.57;1.00;;;25.60;99.90;;;;;;5094371;27;20267;-61
2024/04/07 12:08:53;;;;;;;2.60;0.90;;;25.70;1.00;;;;;;5093119;28;20293;-63
2024/04/07 12:11:25;;;;;;;2.77;0.90;;;25.30;99.90;;;;;;5081246;28;20305;-63
2024/04/07 12:13:52;;;;;;;3.07;1.00;;;25.00;99.90;;;;;;5072790;27;20222;-63
2024/04/07 12:16:21;;;;;;;2.57;1.00;;;24.70;99.90;;;;;;5092763;28;20221;-62
2024/04/07 12:18:51;;;;;;;0.97;0.83;;;24.60;99.90;;;;;;5084777;28;20237;-62
2024/04/07 12:21:20;;;;;;;1.70;1.00;;;24.70;99.90;;;;;;5092747;28;20325;-63
2024/04/07 12:23:46;;;;;;;1.80;1.00;;;24.30;99.90;;;;;;5075536;28;20305;-63
2024/04/07 12:26:14;;;;;;;1.40;0.90;;;24.20;1.00;;;;;;5094538;28;20226;-62
2024/04/07 12:28:59;;;;;;;0.80;0.80;;;23.90;99.90;;;;;;5086918;28;20229;-63
2024/04/07 12:31:28;;;;;;;0.97;0.83;;;24.00;1.00;;;;;;5091530;28;20244;-63
2024/04/07 12:34:16;;;;;;;0.80;0.80;;;24.40;99.90;;;;;;5088753;28;20650;-62
2024/04/07 12:36:44;;;;;;;3.30;0.80;;;24.10;99.90;;;;;;5067042;28;20306;-62
2024/04/07 12:39:11;;;;;;;2.70;1.00;;;24.10;1.00;;;;;;5090947;28;20216;-63
2024/04/07 12:41:38;;;;;;;2.90;0.73;;;24.10;1.00;;;;;;5092927;28;20199;-63
2024/04/07 12:44:05;;;;;;;1.27;0.73;;;23.80;1.00;;;;;;5098594;28;20225;-62
2024/04/07 12:46:34;;;;;;;2.63;0.70;;;24.10;1.00;;;;;;5078025;28;20759;-62
2024/04/07 12:49:00;;;;;;;1.27;0.90;;;23.90;1.00;;;;;;5093614;28;20228;-62
2024/04/07 12:51:28;;;;;;;1.00;1.00;;;23.30;99.90;;;;;;5097908;28;20738;-63
2024/04/07 12:53:54;;;;;;;0.93;0.90;;;23.30;1.00;;;;;;5096251;28;20248;-64
2024/04/07 12:56:22;;;;;;;0.77;0.77;;;23.20;1.00;;;;;;5096416;28;20196;-63
2024/04/07 12:58:49;;;;;;;2.40;0.93;;;23.40;99.90;;;;;;5075204;28;20221;-62
2024/04/07 13:01:16;;;;;;;1.20;0.97;;;23.40;99.90;;;;;;5089203;28;20217;-62
2024/04/07 13:03:43;;;;;;;1.27;0.73;;;23.20;99.90;;;;;;5074571;28;20713;-63
2024/04/07 13:06:11;;;;;;;2.57;1.00;;;22.70;1.00;;;;;;5096095;28;20306;-61
2024/04/07 13:08:37;;;;;;;1.13;0.90;;;22.40;1.00;;;;;;5098000;28;20190;-62
2024/04/07 13:11:05;;;;;;;1.37;0.80;;;22.80;1.00;;;;;;5103637;28;20229;-61